sensor_id;sensor_type;location;lat;lon;timestamp;P1;durP1;ratioP1;P2;durP2;ratioP2
3068;SDS011;1545;51.728;8.796;2023-02-15T00:00:26;34.13;;;19.33;;
3068;SDS011;1545;51.728;8.796;2023-02-15T00:02:51;36.20;;;20.43;;
3068;SDS011;1545;51.728;8.796;2023-02-15T00:05:17;35.10;;;19.63;;
3068;SDS011;1545;51.728;8.796;2023-02-15T00:07:42;31.80;;;18.77;;
3068;SDS011;1545;51.728;8.796;2023-02-15T00:10:08;35.43;;;19.87;;
3068;SDS011;1545;51.728;8.796;2023-02-15T00:12:34;36.07;;;19.83;;
3068;SDS011;1545;51.728;8.796;2023-02-15T00:14:59;35.63;;;19.73;;
3068;SDS011;1545;51.728;8.796;2023-02-15T00:17:28;36.50;;;20.43;;
3068;SDS011;1545;51.728;8.796;2023-02-15T00:19:54;39.43;;;21.10;;
3068;SDS011;1545;51.728;8.796;2023-02-15T00:22:19;36.13;;;20.30;;
3068;SDS011;1545;51.728;8.796;2023-02-15T00:24:45;37.17;;;21.33;;
3068;SDS011;1545;51.728;8.796;2023-02-15T00:27:11;38.23;;;20.43;;
3068;SDS011;1545;51.728;8.796;2023-02-15T00:29:36;33.23;;;19.80;;
3068;SDS011;1545;51.728;8.796;2023-02-15T00:32:02;37.43;;;20.47;;
3068;SDS011;1545;51.728;8.796;2023-02-15T00:34:27;37.03;;;20.77;;
3068;SDS011;1545;51.728;8.796;2023-02-15T00:36:53;41.13;;;22.07;;
3068;SDS011;1545;51.728;8.796;2023-02-15T00:39:19;38.83;;;20.83;;
3068;SDS011;1545;51.728;8.796;2023-02-15T00:41:45;41.13;;;20.87;;
3068;SDS011;1545;51.728;8.796;2023-02-15T00:44:11;38.10;;;20.13;;
3068;SDS011;1545;51.728;8.796;2023-02-15T00:46:37;41.17;;;22.77;;
3068;SDS011;1545;51.728;8.796;2023-02-15T00:49:04;35.87;;;20.60;;
3068;SDS011;1545;51.728;8.796;2023-02-15T00:51:30;39.00;;;21.43;;
3068;SDS011;1545;51.728;8.796;2023-02-15T00:53:56;41.33;;;21.23;;
3068;SDS011;1545;51.728;8.796;2023-02-15T00:56:22;37.63;;;21.80;;
3068;SDS011;1545;51.728;8.796;2023-02-15T00:58:47;39.70;;;21.50;;
3068;SDS011;1545;51.728;8.796;2023-02-15T01:01:15;42.47;;;21.63;;
3068;SDS011;1545;51.728;8.796;2023-02-15T01:03:43;39.37;;;21.87;;
3068;SDS011;1545;51.728;8.796;2023-02-15T01:06:10;38.77;;;21.70;;
3068;SDS011;1545;51.728;8.796;2023-02-15T01:08:36;36.50;;;21.40;;
3068;SDS011;1545;51.728;8.796;2023-02-15T01:11:09;37.13;;;21.70;;
3068;SDS011;1545;51.728;8.796;2023-02-15T01:13:36;43.03;;;21.50;;
3068;SDS011;1545;51.728;8.796;2023-02-15T01:16:02;35.90;;;21.20;;
3068;SDS011;1545;51.728;8.796;2023-02-15T01:18:29;39.07;;;21.93;;
3068;SDS011;1545;51.728;8.796;2023-02-15T01:20:55;40.70;;;22.43;;
3068;SDS011;1545;51.728;8.796;2023-02-15T01:23:20;38.40;;;22.20;;
3068;SDS011;1545;51.728;8.796;2023-02-15T01:25:46;38.83;;;22.47;;
3068;SDS011;1545;51.728;8.796;2023-02-15T01:28:12;40.23;;;23.13;;
3068;SDS011;1545;51.728;8.796;2023-02-15T01:30:38;35.57;;;21.30;;
3068;SDS011;1545;51.728;8.796;2023-02-15T01:33:04;40.87;;;22.23;;
3068;SDS011;1545;51.728;8.796;2023-02-15T01:35:29;38.00;;;22.67;;
3068;SDS011;1545;51.728;8.796;2023-02-15T01:37:55;39.63;;;22.27;;
3068;SDS011;1545;51.728;8.796;2023-02-15T01:40:21;36.80;;;21.63;;
3068;SDS011;1545;51.728;8.796;2023-02-15T01:42:49;37.60;;;21.80;;
3068;SDS011;1545;51.728;8.796;2023-02-15T01:45:21;42.30;;;22.33;;
3068;SDS011;1545;51.728;8.796;2023-02-15T01:47:52;43.67;;;23.67;;
3068;SDS011;1545;51.728;8.796;2023-02-15T01:50:29;40.10;;;23.13;;
3068;SDS011;1545;51.728;8.796;2023-02-15T01:53:06;37.73;;;21.90;;
3068;SDS011;1545;51.728;8.796;2023-02-15T01:55:37;40.73;;;23.73;;
3068;SDS011;1545;51.728;8.796;2023-02-15T01:58:06;43.90;;;22.97;;
3068;SDS011;1545;51.728;8.796;2023-02-15T02:00:32;42.37;;;24.13;;
3068;SDS011;1545;51.728;8.796;2023-02-15T02:02:59;43.17;;;23.47;;
3068;SDS011;1545;51.728;8.796;2023-02-15T02:05:26;39.63;;;23.57;;
3068;SDS011;1545;51.728;8.796;2023-02-15T02:07:53;40.97;;;23.13;;
3068;SDS011;1545;51.728;8.796;2023-02-15T02:10:22;42.40;;;23.20;;
3068;SDS011;1545;51.728;8.796;2023-02-15T02:12:52;40.57;;;23.03;;
3068;SDS011;1545;51.728;8.796;2023-02-15T02:15:23;38.70;;;22.30;;
3068;SDS011;1545;51.728;8.796;2023-02-15T02:17:58;41.53;;;22.63;;
3068;SDS011;1545;51.728;8.796;2023-02-15T02:23:38;42.10;;;24.13;;
3068;SDS011;1545;51.728;8.796;2023-02-15T02:29:21;42.10;;;24.10;;
3068;SDS011;1545;51.728;8.796;2023-02-15T02:32:12;41.53;;;23.10;;
3068;SDS011;1545;51.728;8.796;2023-02-15T02:40:18;40.23;;;23.03;;
3068;SDS011;1545;51.728;8.796;2023-02-15T02:42:54;38.97;;;22.73;;
3068;SDS011;1545;51.728;8.796;2023-02-15T02:48:23;42.23;;;22.80;;
3068;SDS011;1545;51.728;8.796;2023-02-15T02:50:51;36.97;;;22.03;;
3068;SDS011;1545;51.728;8.796;2023-02-15T02:53:17;38.70;;;21.80;;
3068;SDS011;1545;51.728;8.796;2023-02-15T02:55:44;41.00;;;22.93;;
3068;SDS011;1545;51.728;8.796;2023-02-15T02:58:18;38.00;;;22.07;;
3068;SDS011;1545;51.728;8.796;2023-02-15T03:01:01;39.30;;;22.40;;
3068;SDS011;1545;51.728;8.796;2023-02-15T03:03:37;36.20;;;21.43;;
3068;SDS011;1545;51.728;8.796;2023-02-15T03:06:36;36.93;;;21.17;;
3068;SDS011;1545;51.728;8.796;2023-02-15T03:09:28;39.20;;;21.83;;
3068;SDS011;1545;51.728;8.796;2023-02-15T03:12:08;39.07;;;22.40;;
3068;SDS011;1545;51.728;8.796;2023-02-15T03:14:35;38.10;;;22.33;;
3068;SDS011;1545;51.728;8.796;2023-02-15T03:17:01;39.57;;;21.77;;
3068;SDS011;1545;51.728;8.796;2023-02-15T03:19:30;36.17;;;20.83;;
3068;SDS011;1545;51.728;8.796;2023-02-15T03:22:00;38.60;;;22.60;;
3068;SDS011;1545;51.728;8.796;2023-02-15T03:24:44;41.53;;;22.90;;
3068;SDS011;1545;51.728;8.796;2023-02-15T03:27:19;37.60;;;21.90;;
3068;SDS011;1545;51.728;8.796;2023-02-15T03:29:50;39.77;;;22.40;;
3068;SDS011;1545;51.728;8.796;2023-02-15T03:32:19;39.03;;;22.60;;
3068;SDS011;1545;51.728;8.796;2023-02-15T03:34:45;38.93;;;21.90;;
3068;SDS011;1545;51.728;8.796;2023-02-15T03:37:24;42.17;;;22.87;;
3068;SDS011;1545;51.728;8.796;2023-02-15T03:42:51;42.87;;;23.63;;
3068;SDS011;1545;51.728;8.796;2023-02-15T03:45:25;42.33;;;23.20;;
3068;SDS011;1545;51.728;8.796;2023-02-15T03:47:55;38.77;;;22.70;;
3068;SDS011;1545;51.728;8.796;2023-02-15T03:50:24;41.13;;;23.33;;
3068;SDS011;1545;51.728;8.796;2023-02-15T03:53:13;41.70;;;23.13;;
3068;SDS011;1545;51.728;8.796;2023-02-15T03:55:41;44.00;;;24.10;;
3068;SDS011;1545;51.728;8.796;2023-02-15T03:58:11;39.87;;;23.10;;
3068;SDS011;1545;51.728;8.796;2023-02-15T04:00:57;43.10;;;22.97;;
3068;SDS011;1545;51.728;8.796;2023-02-15T04:03:45;42.03;;;22.90;;
3068;SDS011;1545;51.728;8.796;2023-02-15T04:06:18;43.33;;;23.27;;
3068;SDS011;1545;51.728;8.796;2023-02-15T04:08:44;39.30;;;22.63;;
3068;SDS011;1545;51.728;8.796;2023-02-15T04:11:28;40.50;;;22.73;;
3068;SDS011;1545;51.728;8.796;2023-02-15T04:13:53;41.23;;;23.33;;
3068;SDS011;1545;51.728;8.796;2023-02-15T04:16:24;48.17;;;23.37;;
3068;SDS011;1545;51.728;8.796;2023-02-15T04:18:50;41.90;;;22.93;;
3068;SDS011;1545;51.728;8.796;2023-02-15T04:21:34;42.77;;;23.40;;
3068;SDS011;1545;51.728;8.796;2023-02-15T04:24:18;45.80;;;23.50;;
3068;SDS011;1545;51.728;8.796;2023-02-15T04:27:02;44.70;;;23.50;;
3068;SDS011;1545;51.728;8.796;2023-02-15T04:29:30;45.97;;;24.60;;
3068;SDS011;1545;51.728;8.796;2023-02-15T04:31:57;44.40;;;24.33;;
3068;SDS011;1545;51.728;8.796;2023-02-15T04:34:23;47.37;;;24.80;;
3068;SDS011;1545;51.728;8.796;2023-02-15T04:36:49;39.67;;;23.10;;
3068;SDS011;1545;51.728;8.796;2023-02-15T04:39:15;43.23;;;24.03;;
3068;SDS011;1545;51.728;8.796;2023-02-15T04:41:42;48.13;;;24.20;;
3068;SDS011;1545;51.728;8.796;2023-02-15T04:44:07;44.40;;;24.30;;
3068;SDS011;1545;51.728;8.796;2023-02-15T04:46:33;43.93;;;23.70;;
3068;SDS011;1545;51.728;8.796;2023-02-15T04:48:58;42.77;;;23.87;;
3068;SDS011;1545;51.728;8.796;2023-02-15T04:51:24;43.87;;;23.50;;
3068;SDS011;1545;51.728;8.796;2023-02-15T04:53:49;44.83;;;24.50;;
3068;SDS011;1545;51.728;8.796;2023-02-15T04:56:17;43.27;;;24.30;;
3068;SDS011;1545;51.728;8.796;2023-02-15T04:58:43;46.20;;;24.33;;
3068;SDS011;1545;51.728;8.796;2023-02-15T05:01:09;47.43;;;24.27;;
3068;SDS011;1545;51.728;8.796;2023-02-15T05:03:35;44.47;;;24.50;;
3068;SDS011;1545;51.728;8.796;2023-02-15T05:06:01;47.63;;;25.33;;
3068;SDS011;1545;51.728;8.796;2023-02-15T05:08:27;51.30;;;25.30;;
3068;SDS011;1545;51.728;8.796;2023-02-15T05:10:53;46.57;;;24.67;;
3068;SDS011;1545;51.728;8.796;2023-02-15T05:13:18;50.20;;;26.07;;
3068;SDS011;1545;51.728;8.796;2023-02-15T05:15:50;49.53;;;25.20;;
3068;SDS011;1545;51.728;8.796;2023-02-15T05:18:17;51.93;;;26.43;;
3068;SDS011;1545;51.728;8.796;2023-02-15T05:20:44;46.87;;;25.03;;
3068;SDS011;1545;51.728;8.796;2023-02-15T05:23:09;49.60;;;25.27;;
3068;SDS011;1545;51.728;8.796;2023-02-15T05:25:35;42.00;;;22.97;;
3068;SDS011;1545;51.728;8.796;2023-02-15T05:28:19;44.03;;;23.50;;
3068;SDS011;1545;51.728;8.796;2023-02-15T05:30:46;48.57;;;25.57;;
3068;SDS011;1545;51.728;8.796;2023-02-15T05:33:12;47.50;;;25.40;;
3068;SDS011;1545;51.728;8.796;2023-02-15T05:35:38;51.37;;;25.83;;
3068;SDS011;1545;51.728;8.796;2023-02-15T05:38:05;46.10;;;24.97;;
3068;SDS011;1545;51.728;8.796;2023-02-15T05:40:30;47.63;;;24.90;;
3068;SDS011;1545;51.728;8.796;2023-02-15T05:42:56;50.33;;;25.30;;
3068;SDS011;1545;51.728;8.796;2023-02-15T05:45:22;49.63;;;25.23;;
3068;SDS011;1545;51.728;8.796;2023-02-15T05:47:48;48.83;;;26.03;;
3068;SDS011;1545;51.728;8.796;2023-02-15T05:50:13;45.00;;;24.07;;
3068;SDS011;1545;51.728;8.796;2023-02-15T05:52:39;49.67;;;25.00;;
3068;SDS011;1545;51.728;8.796;2023-02-15T05:55:04;51.60;;;25.60;;
3068;SDS011;1545;51.728;8.796;2023-02-15T05:57:30;47.17;;;25.20;;
3068;SDS011;1545;51.728;8.796;2023-02-15T05:59:56;49.13;;;24.90;;
3068;SDS011;1545;51.728;8.796;2023-02-15T06:02:22;43.57;;;24.00;;
3068;SDS011;1545;51.728;8.796;2023-02-15T06:04:47;45.93;;;24.57;;
3068;SDS011;1545;51.728;8.796;2023-02-15T06:07:13;47.27;;;25.07;;
3068;SDS011;1545;51.728;8.796;2023-02-15T06:09:38;44.50;;;23.73;;
3068;SDS011;1545;51.728;8.796;2023-02-15T06:12:04;45.83;;;24.47;;
3068;SDS011;1545;51.728;8.796;2023-02-15T06:14:30;41.57;;;22.80;;
3068;SDS011;1545;51.728;8.796;2023-02-15T06:16:55;44.57;;;24.00;;
3068;SDS011;1545;51.728;8.796;2023-02-15T06:19:21;44.87;;;22.90;;
3068;SDS011;1545;51.728;8.796;2023-02-15T06:21:48;44.90;;;23.80;;
3068;SDS011;1545;51.728;8.796;2023-02-15T06:24:14;43.27;;;23.20;;
3068;SDS011;1545;51.728;8.796;2023-02-15T06:26:39;46.47;;;24.37;;
3068;SDS011;1545;51.728;8.796;2023-02-15T06:29:05;46.60;;;23.97;;
3068;SDS011;1545;51.728;8.796;2023-02-15T06:31:30;42.97;;;23.03;;
3068;SDS011;1545;51.728;8.796;2023-02-15T06:33:56;43.37;;;23.37;;
3068;SDS011;1545;51.728;8.796;2023-02-15T06:36:26;45.43;;;23.30;;
3068;SDS011;1545;51.728;8.796;2023-02-15T06:38:52;46.33;;;23.60;;
3068;SDS011;1545;51.728;8.796;2023-02-15T06:41:18;51.67;;;24.23;;
3068;SDS011;1545;51.728;8.796;2023-02-15T06:43:43;44.47;;;22.97;;
3068;SDS011;1545;51.728;8.796;2023-02-15T06:46:09;47.40;;;23.40;;
3068;SDS011;1545;51.728;8.796;2023-02-15T06:48:34;51.00;;;23.47;;
3068;SDS011;1545;51.728;8.796;2023-02-15T06:51:00;47.03;;;24.37;;
3068;SDS011;1545;51.728;8.796;2023-02-15T06:53:25;43.37;;;22.90;;
3068;SDS011;1545;51.728;8.796;2023-02-15T06:55:51;46.30;;;24.33;;
3068;SDS011;1545;51.728;8.796;2023-02-15T06:58:16;51.10;;;23.60;;
3068;SDS011;1545;51.728;8.796;2023-02-15T07:00:42;50.93;;;24.83;;
3068;SDS011;1545;51.728;8.796;2023-02-15T07:03:07;46.73;;;24.43;;
3068;SDS011;1545;51.728;8.796;2023-02-15T07:05:33;50.60;;;25.20;;
3068;SDS011;1545;51.728;8.796;2023-02-15T07:07:59;43.90;;;23.37;;
3068;SDS011;1545;51.728;8.796;2023-02-15T07:10:26;46.17;;;25.13;;
3068;SDS011;1545;51.728;8.796;2023-02-15T07:12:52;46.07;;;23.83;;
3068;SDS011;1545;51.728;8.796;2023-02-15T07:15:18;52.53;;;25.33;;
3068;SDS011;1545;51.728;8.796;2023-02-15T07:17:47;45.37;;;24.23;;
3068;SDS011;1545;51.728;8.796;2023-02-15T07:20:15;45.33;;;24.73;;
3068;SDS011;1545;51.728;8.796;2023-02-15T07:22:43;45.60;;;23.80;;
3068;SDS011;1545;51.728;8.796;2023-02-15T07:25:09;44.30;;;23.77;;
3068;SDS011;1545;51.728;8.796;2023-02-15T07:27:36;41.80;;;22.37;;
3068;SDS011;1545;51.728;8.796;2023-02-15T07:30:02;41.17;;;21.97;;
3068;SDS011;1545;51.728;8.796;2023-02-15T07:32:29;43.77;;;23.13;;
3068;SDS011;1545;51.728;8.796;2023-02-15T07:34:56;41.03;;;22.40;;
3068;SDS011;1545;51.728;8.796;2023-02-15T07:37:22;48.33;;;22.93;;
3068;SDS011;1545;51.728;8.796;2023-02-15T07:39:48;38.93;;;21.23;;
3068;SDS011;1545;51.728;8.796;2023-02-15T07:42:13;43.57;;;21.57;;
3068;SDS011;1545;51.728;8.796;2023-02-15T07:44:39;40.97;;;21.63;;
3068;SDS011;1545;51.728;8.796;2023-02-15T07:47:04;37.27;;;20.77;;
3068;SDS011;1545;51.728;8.796;2023-02-15T07:49:30;36.23;;;20.47;;
3068;SDS011;1545;51.728;8.796;2023-02-15T07:51:55;40.93;;;20.73;;
3068;SDS011;1545;51.728;8.796;2023-02-15T07:54:21;41.57;;;20.63;;
3068;SDS011;1545;51.728;8.796;2023-02-15T07:56:46;39.43;;;20.73;;
3068;SDS011;1545;51.728;8.796;2023-02-15T07:59:12;42.53;;;20.87;;
3068;SDS011;1545;51.728;8.796;2023-02-15T08:01:38;42.23;;;20.83;;
3068;SDS011;1545;51.728;8.796;2023-02-15T08:04:04;38.23;;;20.67;;
3068;SDS011;1545;51.728;8.796;2023-02-15T08:06:32;35.10;;;19.97;;
3068;SDS011;1545;51.728;8.796;2023-02-15T08:08:59;32.90;;;18.80;;
3068;SDS011;1545;51.728;8.796;2023-02-15T08:11:28;35.83;;;19.80;;
3068;SDS011;1545;51.728;8.796;2023-02-15T08:14:14;34.80;;;19.20;;
3068;SDS011;1545;51.728;8.796;2023-02-15T08:16:50;40.80;;;19.13;;
3068;SDS011;1545;51.728;8.796;2023-02-15T08:19:21;33.43;;;18.27;;
3068;SDS011;1545;51.728;8.796;2023-02-15T08:22:21;32.57;;;18.30;;
3068;SDS011;1545;51.728;8.796;2023-02-15T08:24:40;33.17;;;17.80;;
3068;SDS011;1545;51.728;8.796;2023-02-15T08:27:07;35.17;;;19.07;;
3068;SDS011;1545;51.728;8.796;2023-02-15T08:29:34;32.83;;;18.30;;
3068;SDS011;1545;51.728;8.796;2023-02-15T08:32:02;34.43;;;18.17;;
3068;SDS011;1545;51.728;8.796;2023-02-15T08:34:31;33.23;;;18.30;;
3068;SDS011;1545;51.728;8.796;2023-02-15T08:36:59;32.73;;;17.33;;
3068;SDS011;1545;51.728;8.796;2023-02-15T08:39:25;33.40;;;17.43;;
3068;SDS011;1545;51.728;8.796;2023-02-15T08:41:50;35.13;;;17.53;;
3068;SDS011;1545;51.728;8.796;2023-02-15T08:44:17;31.33;;;17.20;;
3068;SDS011;1545;51.728;8.796;2023-02-15T08:46:44;34.10;;;17.27;;
3068;SDS011;1545;51.728;8.796;2023-02-15T08:49:12;32.87;;;17.47;;
3068;SDS011;1545;51.728;8.796;2023-02-15T08:51:40;29.00;;;16.13;;
3068;SDS011;1545;51.728;8.796;2023-02-15T08:54:07;29.40;;;16.43;;
3068;SDS011;1545;51.728;8.796;2023-02-15T08:56:35;33.13;;;16.93;;
3068;SDS011;1545;51.728;8.796;2023-02-15T08:59:03;31.80;;;17.90;;
3068;SDS011;1545;51.728;8.796;2023-02-15T09:01:30;32.80;;;17.30;;
3068;SDS011;1545;51.728;8.796;2023-02-15T09:04:01;27.90;;;16.03;;
3068;SDS011;1545;51.728;8.796;2023-02-15T09:06:33;28.43;;;16.37;;
3068;SDS011;1545;51.728;8.796;2023-02-15T09:08:59;28.30;;;15.90;;
3068;SDS011;1545;51.728;8.796;2023-02-15T09:11:28;29.23;;;16.03;;
3068;SDS011;1545;51.728;8.796;2023-02-15T09:13:59;34.63;;;16.77;;
3068;SDS011;1545;51.728;8.796;2023-02-15T09:16:31;34.90;;;16.67;;
3068;SDS011;1545;51.728;8.796;2023-02-15T09:18:59;34.13;;;16.93;;
3068;SDS011;1545;51.728;8.796;2023-02-15T09:21:26;28.37;;;16.00;;
3068;SDS011;1545;51.728;8.796;2023-02-15T09:24:00;33.40;;;16.30;;
3068;SDS011;1545;51.728;8.796;2023-02-15T09:26:28;30.30;;;16.77;;
3068;SDS011;1545;51.728;8.796;2023-02-15T09:28:56;31.70;;;16.27;;
3068;SDS011;1545;51.728;8.796;2023-02-15T09:31:24;38.90;;;17.40;;
3068;SDS011;1545;51.728;8.796;2023-02-15T09:33:52;30.53;;;17.33;;
3068;SDS011;1545;51.728;8.796;2023-02-15T09:36:19;31.00;;;16.27;;
3068;SDS011;1545;51.728;8.796;2023-02-15T09:38:46;34.27;;;15.53;;
3068;SDS011;1545;51.728;8.796;2023-02-15T09:50:03;29.60;;;15.83;;
3068;SDS011;1545;51.728;8.796;2023-02-15T09:58:14;30.13;;;16.63;;
3068;SDS011;1545;51.728;8.796;2023-02-15T10:11:39;30.07;;;15.57;;
3068;SDS011;1545;51.728;8.796;2023-02-15T10:14:25;29.63;;;15.93;;
3068;SDS011;1545;51.728;8.796;2023-02-15T10:27:51;27.20;;;15.10;;
3068;SDS011;1545;51.728;8.796;2023-02-15T10:30:29;27.50;;;14.40;;
3068;SDS011;1545;51.728;8.796;2023-02-15T10:33:04;25.40;;;14.67;;
3068;SDS011;1545;51.728;8.796;2023-02-15T10:35:59;29.47;;;16.00;;
3068;SDS011;1545;51.728;8.796;2023-02-15T10:41:41;31.90;;;15.57;;
3068;SDS011;1545;51.728;8.796;2023-02-15T10:44:55;28.87;;;15.63;;
3068;SDS011;1545;51.728;8.796;2023-02-15T10:53:09;30.50;;;15.27;;
3068;SDS011;1545;51.728;8.796;2023-02-15T10:58:12;27.87;;;15.27;;
3068;SDS011;1545;51.728;8.796;2023-02-15T11:00:50;28.33;;;15.50;;
3068;SDS011;1545;51.728;8.796;2023-02-15T11:06:11;29.53;;;15.03;;
3068;SDS011;1545;51.728;8.796;2023-02-15T11:08:40;28.10;;;14.87;;
3068;SDS011;1545;51.728;8.796;2023-02-15T11:11:10;29.67;;;15.17;;
3068;SDS011;1545;51.728;8.796;2023-02-15T11:13:47;33.30;;;16.00;;
3068;SDS011;1545;51.728;8.796;2023-02-15T11:16:16;28.37;;;15.47;;
3068;SDS011;1545;51.728;8.796;2023-02-15T11:18:50;28.97;;;15.77;;
3068;SDS011;1545;51.728;8.796;2023-02-15T11:21:30;33.77;;;14.33;;
3068;SDS011;1545;51.728;8.796;2023-02-15T11:24:08;25.67;;;15.67;;
3068;SDS011;1545;51.728;8.796;2023-02-15T11:26:46;26.60;;;15.43;;
3068;SDS011;1545;51.728;8.796;2023-02-15T11:29:24;35.87;;;15.47;;
3068;SDS011;1545;51.728;8.796;2023-02-15T11:32:01;29.00;;;15.57;;
3068;SDS011;1545;51.728;8.796;2023-02-15T11:34:53;34.10;;;15.93;;
3068;SDS011;1545;51.728;8.796;2023-02-15T11:37:36;27.83;;;15.57;;
3068;SDS011;1545;51.728;8.796;2023-02-15T11:40:12;25.37;;;14.13;;
3068;SDS011;1545;51.728;8.796;2023-02-15T11:42:49;38.50;;;15.73;;
3068;SDS011;1545;51.728;8.796;2023-02-15T11:45:28;31.43;;;15.30;;
3068;SDS011;1545;51.728;8.796;2023-02-15T11:47:56;25.60;;;14.87;;
3068;SDS011;1545;51.728;8.796;2023-02-15T11:50:24;29.37;;;15.37;;
3068;SDS011;1545;51.728;8.796;2023-02-15T11:52:56;26.27;;;14.70;;
3068;SDS011;1545;51.728;8.796;2023-02-15T11:55:27;25.67;;;15.17;;
3068;SDS011;1545;51.728;8.796;2023-02-15T12:00:56;27.27;;;15.30;;
3068;SDS011;1545;51.728;8.796;2023-02-15T12:03:43;31.60;;;15.23;;
3068;SDS011;1545;51.728;8.796;2023-02-15T12:09:09;28.73;;;14.97;;
3068;SDS011;1545;51.728;8.796;2023-02-15T12:11:44;24.47;;;14.47;;
3068;SDS011;1545;51.728;8.796;2023-02-15T12:14:10;23.93;;;13.93;;
3068;SDS011;1545;51.728;8.796;2023-02-15T12:19:13;26.67;;;15.10;;
3068;SDS011;1545;51.728;8.796;2023-02-15T12:21:52;31.23;;;15.00;;
3068;SDS011;1545;51.728;8.796;2023-02-15T12:24:22;26.27;;;14.73;;
3068;SDS011;1545;51.728;8.796;2023-02-15T12:27:24;26.47;;;14.07;;
3068;SDS011;1545;51.728;8.796;2023-02-15T12:29:49;25.60;;;14.27;;
3068;SDS011;1545;51.728;8.796;2023-02-15T12:32:34;28.67;;;14.63;;
3068;SDS011;1545;51.728;8.796;2023-02-15T12:35:15;24.03;;;13.93;;
3068;SDS011;1545;51.728;8.796;2023-02-15T12:40:33;28.40;;;14.80;;
3068;SDS011;1545;51.728;8.796;2023-02-15T12:43:00;23.20;;;14.07;;
3068;SDS011;1545;51.728;8.796;2023-02-15T12:45:33;22.80;;;13.77;;
3068;SDS011;1545;51.728;8.796;2023-02-15T12:48:22;25.07;;;14.10;;
3068;SDS011;1545;51.728;8.796;2023-02-15T12:50:48;27.10;;;13.90;;
3068;SDS011;1545;51.728;8.796;2023-02-15T12:53:19;27.17;;;13.73;;
3068;SDS011;1545;51.728;8.796;2023-02-15T12:55:49;25.80;;;13.93;;
3068;SDS011;1545;51.728;8.796;2023-02-15T12:58:29;22.60;;;13.23;;
3068;SDS011;1545;51.728;8.796;2023-02-15T13:03:36;20.77;;;12.87;;
3068;SDS011;1545;51.728;8.796;2023-02-15T13:06:04;23.03;;;13.00;;
3068;SDS011;1545;51.728;8.796;2023-02-15T13:08:34;24.97;;;13.27;;
3068;SDS011;1545;51.728;8.796;2023-02-15T13:11:11;22.07;;;13.33;;
3068;SDS011;1545;51.728;8.796;2023-02-15T13:13:45;22.80;;;12.93;;
3068;SDS011;1545;51.728;8.796;2023-02-15T13:16:24;22.10;;;13.50;;
3068;SDS011;1545;51.728;8.796;2023-02-15T13:18:52;23.87;;;13.80;;
3068;SDS011;1545;51.728;8.796;2023-02-15T13:21:25;23.53;;;12.97;;
3068;SDS011;1545;51.728;8.796;2023-02-15T13:23:56;23.97;;;13.30;;
3068;SDS011;1545;51.728;8.796;2023-02-15T13:26:26;23.77;;;13.23;;
3068;SDS011;1545;51.728;8.796;2023-02-15T13:28:55;23.73;;;13.00;;
3068;SDS011;1545;51.728;8.796;2023-02-15T13:31:27;24.70;;;13.33;;
3068;SDS011;1545;51.728;8.796;2023-02-15T13:34:08;23.30;;;13.87;;
3068;SDS011;1545;51.728;8.796;2023-02-15T13:39:49;28.57;;;13.70;;
3068;SDS011;1545;51.728;8.796;2023-02-15T13:42:51;27.03;;;13.00;;
3068;SDS011;1545;51.728;8.796;2023-02-15T13:50:46;24.60;;;13.33;;
3068;SDS011;1545;51.728;8.796;2023-02-15T13:58:55;24.57;;;12.70;;
3068;SDS011;1545;51.728;8.796;2023-02-15T14:01:36;21.70;;;12.67;;
3068;SDS011;1545;51.728;8.796;2023-02-15T14:07:31;29.60;;;13.73;;
3068;SDS011;1545;51.728;8.796;2023-02-15T14:13:09;23.07;;;13.43;;
3068;SDS011;1545;51.728;8.796;2023-02-15T14:21:47;22.97;;;13.33;;
3068;SDS011;1545;51.728;8.796;2023-02-15T14:24:23;33.63;;;15.07;;
3068;SDS011;1545;51.728;8.796;2023-02-15T14:31:58;26.33;;;14.27;;
3068;SDS011;1545;51.728;8.796;2023-02-15T14:34:58;29.30;;;14.53;;
3068;SDS011;1545;51.728;8.796;2023-02-15T14:37:46;29.30;;;15.77;;
3068;SDS011;1545;51.728;8.796;2023-02-15T14:46:34;27.43;;;15.47;;
3068;SDS011;1545;51.728;8.796;2023-02-15T14:49:52;24.43;;;14.57;;
3068;SDS011;1545;51.728;8.796;2023-02-15T14:52:05;27.73;;;15.33;;
3068;SDS011;1545;51.728;8.796;2023-02-15T14:59:41;26.60;;;15.97;;
3068;SDS011;1545;51.728;8.796;2023-02-15T15:05:15;29.83;;;17.47;;
3068;SDS011;1545;51.728;8.796;2023-02-15T15:08:01;29.77;;;15.27;;
3068;SDS011;1545;51.728;8.796;2023-02-15T15:10:32;29.53;;;16.60;;
3068;SDS011;1545;51.728;8.796;2023-02-15T15:13:34;25.87;;;14.47;;
3068;SDS011;1545;51.728;8.796;2023-02-15T15:15:55;27.10;;;15.30;;
3068;SDS011;1545;51.728;8.796;2023-02-15T15:21:10;25.10;;;15.10;;
3068;SDS011;1545;51.728;8.796;2023-02-15T15:23:40;33.70;;;16.50;;
3068;SDS011;1545;51.728;8.796;2023-02-15T15:26:20;27.27;;;14.60;;
3068;SDS011;1545;51.728;8.796;2023-02-15T15:37:26;28.27;;;15.87;;
3068;SDS011;1545;51.728;8.796;2023-02-15T15:41:14;28.10;;;14.87;;
3068;SDS011;1545;51.728;8.796;2023-02-15T15:44:05;30.53;;;16.27;;
3068;SDS011;1545;51.728;8.796;2023-02-15T15:49:23;29.50;;;16.53;;
3068;SDS011;1545;51.728;8.796;2023-02-15T15:51:51;27.50;;;16.13;;
3068;SDS011;1545;51.728;8.796;2023-02-15T15:54:18;30.17;;;16.93;;
3068;SDS011;1545;51.728;8.796;2023-02-15T15:56:46;29.53;;;15.90;;
3068;SDS011;1545;51.728;8.796;2023-02-15T15:59:18;28.23;;;15.63;;
3068;SDS011;1545;51.728;8.796;2023-02-15T16:01:47;28.13;;;16.70;;
3068;SDS011;1545;51.728;8.796;2023-02-15T16:04:13;30.73;;;17.10;;
3068;SDS011;1545;51.728;8.796;2023-02-15T16:06:49;29.63;;;17.10;;
3068;SDS011;1545;51.728;8.796;2023-02-15T16:09:19;31.30;;;17.03;;
3068;SDS011;1545;51.728;8.796;2023-02-15T16:11:50;34.93;;;17.63;;
3068;SDS011;1545;51.728;8.796;2023-02-15T16:14:24;33.67;;;17.33;;
3068;SDS011;1545;51.728;8.796;2023-02-15T16:16:55;34.07;;;17.57;;
3068;SDS011;1545;51.728;8.796;2023-02-15T16:19:24;30.70;;;17.60;;
3068;SDS011;1545;51.728;8.796;2023-02-15T16:21:53;36.07;;;18.50;;
3068;SDS011;1545;51.728;8.796;2023-02-15T16:24:21;37.93;;;18.87;;
3068;SDS011;1545;51.728;8.796;2023-02-15T16:29:57;36.07;;;17.53;;
3068;SDS011;1545;51.728;8.796;2023-02-15T16:32:24;32.73;;;17.87;;
3068;SDS011;1545;51.728;8.796;2023-02-15T16:35:00;32.17;;;17.20;;
3068;SDS011;1545;51.728;8.796;2023-02-15T16:37:28;35.57;;;18.60;;
3068;SDS011;1545;51.728;8.796;2023-02-15T16:39:57;31.40;;;17.40;;
3068;SDS011;1545;51.728;8.796;2023-02-15T16:42:23;35.17;;;18.43;;
3068;SDS011;1545;51.728;8.796;2023-02-15T16:45:02;37.67;;;19.03;;
3068;SDS011;1545;51.728;8.796;2023-02-15T16:47:34;37.60;;;19.00;;
3068;SDS011;1545;51.728;8.796;2023-02-15T16:50:05;34.73;;;20.20;;
3068;SDS011;1545;51.728;8.796;2023-02-15T16:52:31;39.73;;;19.37;;
3068;SDS011;1545;51.728;8.796;2023-02-15T16:54:58;37.57;;;19.13;;
3068;SDS011;1545;51.728;8.796;2023-02-15T16:57:32;36.07;;;19.17;;
3068;SDS011;1545;51.728;8.796;2023-02-15T17:00:04;35.97;;;20.03;;
3068;SDS011;1545;51.728;8.796;2023-02-15T17:02:32;38.50;;;20.77;;
3068;SDS011;1545;51.728;8.796;2023-02-15T17:05:20;37.03;;;19.00;;
3068;SDS011;1545;51.728;8.796;2023-02-15T17:08:05;48.20;;;20.23;;
3068;SDS011;1545;51.728;8.796;2023-02-15T17:10:39;42.10;;;22.13;;
3068;SDS011;1545;51.728;8.796;2023-02-15T17:13:10;39.17;;;21.07;;
3068;SDS011;1545;51.728;8.796;2023-02-15T17:15:41;39.67;;;20.57;;
3068;SDS011;1545;51.728;8.796;2023-02-15T17:18:29;39.23;;;21.10;;
3068;SDS011;1545;51.728;8.796;2023-02-15T17:20:58;42.57;;;22.03;;
3068;SDS011;1545;51.728;8.796;2023-02-15T17:23:39;40.43;;;20.63;;
3068;SDS011;1545;51.728;8.796;2023-02-15T17:26:18;42.10;;;21.50;;
3068;SDS011;1545;51.728;8.796;2023-02-15T17:31:55;39.60;;;21.07;;
3068;SDS011;1545;51.728;8.796;2023-02-15T17:39:49;47.67;;;22.77;;
3068;SDS011;1545;51.728;8.796;2023-02-15T17:42:15;40.50;;;21.97;;
3068;SDS011;1545;51.728;8.796;2023-02-15T17:44:40;43.83;;;22.30;;